ARN weather

Stockholm-Arlanda Airport
Stockholm, Stockholms län, Sweden

Public forecast

Using degrees Celsius for public forecast. Weather courtesy of forecast.io.

Current aviation weather report (METAR) for Stockholm-Arlanda Airport

Retrieved 2019/10/19 21:20 UTC (0 seconds ago):

ESSA 192120Z 16005KT 4000 BR NSC 06/06 Q1009 NOSIG

Aviation forecast (TAF) for Stockholm-Arlanda Airport

Retrieved 2019/10/19 18:33 UTC (2 hours ago):

TAF ESSA 191730Z 1918/2018 18004KT CAVOK BECMG 2000/2002 RA PROB40 2002/2007 4000 -RADZ BKN012 TEMPO 2007/2011 2500 -DZ BR BKN006 BECMG 2011/2013 4000 BR BKN010 TEMPO 2013/2018 8000 NSW BKN004